createdAt,value
2023-05-02T00:01:15.763Z,72.40
2023-05-02T00:03:43.692Z,72.70
2023-05-02T00:06:11.388Z,72.80
2023-05-02T00:08:38.762Z,72.90
2023-05-02T00:11:05.764Z,73.00
2023-05-02T00:13:32.743Z,72.90
2023-05-02T00:15:59.610Z,72.90
2023-05-02T00:18:26.463Z,72.80
2023-05-02T00:20:53.280Z,73.00
2023-05-02T00:23:20.120Z,73.10
2023-05-02T00:25:47.177Z,73.10
2023-05-02T00:28:14.081Z,73.00
2023-05-02T00:30:45.204Z,73.00
2023-05-02T00:33:14.422Z,73.10
2023-05-02T00:35:41.658Z,73.00
2023-05-02T00:38:08.637Z,73.10
2023-05-02T00:40:45.082Z,73.10
2023-05-02T00:43:12.249Z,73.20
2023-05-02T00:45:43.597Z,73.40
2023-05-02T00:48:11.263Z,73.40
2023-05-02T00:50:43.253Z,73.30
2023-05-02T00:53:10.956Z,73.40
2023-05-02T00:55:38.491Z,73.40
2023-05-02T00:58:15.111Z,73.40
2023-05-02T01:01:00.569Z,73.40
2023-05-02T01:03:27.444Z,73.40
2023-05-02T01:06:08.629Z,73.10
2023-05-02T01:08:43.839Z,73.10
2023-05-02T01:11:41.694Z,72.90
2023-05-02T01:14:11.511Z,73.00
2023-05-02T01:16:42.121Z,73.00
2023-05-02T01:19:17.326Z,73.00
2023-05-02T01:21:44.733Z,73.00
2023-05-02T01:24:30.337Z,72.90
2023-05-02T01:27:12.249Z,73.00
2023-05-02T01:29:41.721Z,72.90
2023-05-02T01:32:09.693Z,73.00
2023-05-02T01:34:40.690Z,73.00
2023-05-02T01:37:10.419Z,73.00
2023-05-02T01:39:39.940Z,73.00
2023-05-02T01:42:07.037Z,73.00
2023-05-02T01:44:36.796Z,72.90
2023-05-02T01:47:05.775Z,73.00
2023-05-02T01:49:35.015Z,72.90
2023-05-02T01:52:11.684Z,72.90
2023-05-02T01:54:40.339Z,72.70
2023-05-02T01:57:09.891Z,72.60
2023-05-02T01:59:37.781Z,72.50
2023-05-02T02:02:06.381Z,72.30
2023-05-02T02:04:37.104Z,72.20
2023-05-02T02:07:07.517Z,72.10
2023-05-02T02:09:34.906Z,71.90
2023-05-02T02:12:08.671Z,71.80
2023-05-02T02:14:39.221Z,71.70
2023-05-02T02:17:13.355Z,71.80
2023-05-02T02:19:41.480Z,71.60
2023-05-02T02:22:09.868Z,71.10
2023-05-02T02:24:39.220Z,70.50
2023-05-02T02:27:06.127Z,70.20
2023-05-02T02:29:34.234Z,70.20
2023-05-02T02:32:01.028Z,70.00
2023-05-02T02:34:28.471Z,69.90
2023-05-02T02:37:05.041Z,69.50
2023-05-02T02:39:41.348Z,69.30
2023-05-02T02:42:25.145Z,69.10
2023-05-02T02:45:18.752Z,69.00
2023-05-02T02:48:00.222Z,68.80
2023-05-02T02:50:32.467Z,68.70
2023-05-02T02:53:08.800Z,68.50
2023-05-02T02:55:44.815Z,68.30
2023-05-02T02:58:22.576Z,67.80
2023-05-02T03:00:50.476Z,67.70
2023-05-02T03:03:18.989Z,67.40
2023-05-02T03:05:46.515Z,67.50
2023-05-02T03:08:14.510Z,67.40
2023-05-02T03:10:41.384Z,67.30
2023-05-02T03:13:09.303Z,67.00
2023-05-02T03:15:54.290Z,66.80
2023-05-02T03:18:28.028Z,66.80
2023-05-02T03:20:55.694Z,66.70
2023-05-02T03:23:22.852Z,66.60
2023-05-02T03:25:52.504Z,66.60
2023-05-02T03:28:23.179Z,66.50
2023-05-02T03:30:51.580Z,66.50
2023-05-02T03:33:18.883Z,66.30
2023-05-02T03:35:46.873Z,66.00
2023-05-02T03:38:13.816Z,65.90
2023-05-02T03:40:40.658Z,65.80
2023-05-02T03:43:11.538Z,65.90
2023-05-02T03:45:38.848Z,65.70
2023-05-02T03:48:06.338Z,65.70
2023-05-02T03:50:33.244Z,65.60
2023-05-02T03:53:00.744Z,65.40
2023-05-02T03:55:41.537Z,64.80
2023-05-02T03:58:12.233Z,64.80
2023-05-02T04:00:39.299Z,64.60
2023-05-02T04:03:08.816Z,64.60
2023-05-02T04:05:39.872Z,64.40
2023-05-02T04:08:07.201Z,64.20
2023-05-02T04:10:34.156Z,63.80
2023-05-02T04:13:04.201Z,63.50
2023-05-02T04:15:33.116Z,63.30
2023-05-02T04:18:00.323Z,63.20
2023-05-02T04:20:27.555Z,62.80
2023-05-02T04:22:55.664Z,62.50
2023-05-02T04:25:22.538Z,62.40
2023-05-02T04:27:51.600Z,62.40
2023-05-02T04:30:21.641Z,62.50
2023-05-02T04:33:03.566Z,62.60
2023-05-02T04:35:34.167Z,62.80
2023-05-02T04:38:01.825Z,63.00
2023-05-02T04:40:29.405Z,63.20
2023-05-02T04:43:02.974Z,63.30
2023-05-02T04:45:36.942Z,63.40
2023-05-02T04:48:07.702Z,63.50
2023-05-02T04:50:34.614Z,63.70
2023-05-02T04:53:01.457Z,63.90
2023-05-02T04:55:28.657Z,64.20
2023-05-02T04:57:55.454Z,64.50
2023-05-02T05:00:22.327Z,64.80
2023-05-02T05:02:49.251Z,65.10
2023-05-02T05:05:16.584Z,65.30
2023-05-02T05:07:45.495Z,65.40
2023-05-02T05:10:13.055Z,65.50
2023-05-02T05:12:44.302Z,65.70
2023-05-02T05:15:11.710Z,65.70
2023-05-02T05:17:40.645Z,65.70
2023-05-02T05:20:09.665Z,65.60
2023-05-02T05:22:41.537Z,65.80
2023-05-02T05:25:10.516Z,65.90
2023-05-02T05:27:38.297Z,65.90
2023-05-02T05:30:06.884Z,65.90
2023-05-02T05:32:34.040Z,65.80
2023-05-02T05:35:01.577Z,65.60
2023-05-02T05:37:29.107Z,65.40
2023-05-02T05:39:57.670Z,65.40
2023-05-02T05:42:24.573Z,65.30
2023-05-02T05:44:55.431Z,65.20
2023-05-02T05:47:22.972Z,64.90
2023-05-02T05:49:55.231Z,64.70
2023-05-02T05:52:25.163Z,64.40
2023-05-02T05:54:55.879Z,64.20
2023-05-02T05:57:24.119Z,63.60
2023-05-02T05:59:51.968Z,63.30
2023-05-02T06:02:19.813Z,63.30
2023-05-02T06:04:47.013Z,63.10
2023-05-02T06:07:15.655Z,62.70
2023-05-02T06:09:42.491Z,62.40
2023-05-02T06:12:09.431Z,62.40
2023-05-02T06:14:37.507Z,62.20
2023-05-02T06:17:04.354Z,61.90
2023-05-02T06:19:31.436Z,61.60
2023-05-02T06:21:58.240Z,61.60
2023-05-02T06:24:25.184Z,61.40
2023-05-02T06:26:51.944Z,60.70
2023-05-02T06:29:18.892Z,59.30
2023-05-02T06:31:46.157Z,58.90
2023-05-02T06:34:13.188Z,58.60
2023-05-02T06:36:40.055Z,58.50
2023-05-02T06:39:06.975Z,58.70
2023-05-02T06:41:33.860Z,58.80
2023-05-02T06:44:00.834Z,58.30
2023-05-02T06:46:30.913Z,57.80
2023-05-02T06:48:57.727Z,57.70
2023-05-02T06:51:24.673Z,57.20
2023-05-02T06:53:51.602Z,57.00
2023-05-02T06:56:18.626Z,56.40
2023-05-02T06:58:45.441Z,56.60
2023-05-02T07:01:13.045Z,55.60
2023-05-02T07:03:40.009Z,55.70
2023-05-02T07:06:06.829Z,55.60
2023-05-02T07:08:33.696Z,55.60
2023-05-02T07:11:00.495Z,56.00
2023-05-02T07:13:27.320Z,56.40
2023-05-02T07:15:54.697Z,56.30
2023-05-02T07:18:21.976Z,56.40
2023-05-02T07:20:48.864Z,56.60
2023-05-02T07:23:15.800Z,56.50
2023-05-02T07:25:42.786Z,56.50
2023-05-02T07:28:09.691Z,56.20
2023-05-02T07:30:36.556Z,55.80
2023-05-02T07:33:03.951Z,56.00
2023-05-02T07:35:30.889Z,56.10
2023-05-02T07:37:57.728Z,56.40
2023-05-02T07:40:24.714Z,56.60
2023-05-02T07:42:51.591Z,56.80
2023-05-02T07:45:18.570Z,56.90
2023-05-02T07:47:46.995Z,57.30
2023-05-02T07:50:13.960Z,57.70
2023-05-02T07:52:40.699Z,57.90
2023-05-02T07:55:08.427Z,58.00
2023-05-02T07:57:35.308Z,57.60
2023-05-02T08:00:02.829Z,57.70
2023-05-02T08:02:41.452Z,57.10
2023-05-02T08:05:09.503Z,56.70
2023-05-02T08:07:37.227Z,56.90
2023-05-02T08:10:08.711Z,56.40
2023-05-02T08:12:42.327Z,56.90
2023-05-02T08:15:12.055Z,55.20
2023-05-02T08:17:38.980Z,54.20
2023-05-02T08:20:06.638Z,54.30
2023-05-02T08:22:33.419Z,54.40
2023-05-02T08:25:00.416Z,54.00
2023-05-02T08:27:27.384Z,53.70
2023-05-02T08:29:54.169Z,53.10
2023-05-02T08:32:22.661Z,51.70
2023-05-02T08:34:49.650Z,52.00
2023-05-02T08:37:16.678Z,52.10
2023-05-02T08:39:43.478Z,52.20
2023-05-02T08:42:10.399Z,52.30
2023-05-02T08:44:37.854Z,52.60
2023-05-02T08:47:06.887Z,52.50
2023-05-02T08:49:35.081Z,52.20
2023-05-02T08:52:02.774Z,52.20
2023-05-02T08:54:30.174Z,51.50
2023-05-02T08:56:59.556Z,50.90
2023-05-02T08:59:26.851Z,50.70
2023-05-02T09:02:01.585Z,50.70
2023-05-02T09:04:35.366Z,50.10
2023-05-02T09:07:02.353Z,50.30
2023-05-02T09:09:31.746Z,50.10
2023-05-02T09:11:59.073Z,49.80
2023-05-02T09:14:26.430Z,50.10
2023-05-02T09:17:00.069Z,50.50
2023-05-02T09:19:27.466Z,50.10
2023-05-02T09:22:01.294Z,49.10
2023-05-02T09:24:29.094Z,50.70
2023-05-02T09:27:04.277Z,49.90
2023-05-02T09:29:36.154Z,49.50
2023-05-02T09:32:04.686Z,47.90
2023-05-02T09:34:31.739Z,48.50
2023-05-02T09:36:58.665Z,46.40
2023-05-02T09:39:29.028Z,45.00
2023-05-02T09:41:56.281Z,43.30
2023-05-02T09:44:36.181Z,41.50
2023-05-02T09:47:03.271Z,39.20
2023-05-02T09:49:41.577Z,37.90
2023-05-02T09:52:13.834Z,37.30
2023-05-02T09:54:40.910Z,37.50
2023-05-02T09:57:08.025Z,37.40
2023-05-02T09:59:34.892Z,36.90
2023-05-02T10:02:04.092Z,37.80
2023-05-02T10:04:32.538Z,38.30
2023-05-02T10:07:00.034Z,38.90
2023-05-02T10:09:28.270Z,38.80
2023-05-02T10:11:56.404Z,38.50
2023-05-02T10:14:29.493Z,38.30
2023-05-02T10:17:12.690Z,38.20
2023-05-02T10:20:00.761Z,37.70
2023-05-02T10:22:27.965Z,38.00
2023-05-02T10:24:58.079Z,39.10
2023-05-02T10:27:25.490Z,39.90
2023-05-02T10:29:53.362Z,38.50
2023-05-02T10:32:22.991Z,37.30
2023-05-02T10:34:51.572Z,35.90
2023-05-02T10:37:19.388Z,35.90
2023-05-02T10:39:46.467Z,33.60
2023-05-02T10:42:14.324Z,33.00
2023-05-02T10:44:41.732Z,32.10
2023-05-02T10:47:27.544Z,31.40
2023-05-02T10:50:05.300Z,31.20
2023-05-02T10:52:38.296Z,31.90
2023-05-02T10:55:14.938Z,32.10
2023-05-02T10:58:00.288Z,30.60
2023-05-02T11:00:32.415Z,30.10
2023-05-02T11:03:00.481Z,29.90
2023-05-02T11:05:28.149Z,30.00
2023-05-02T11:08:23.258Z,29.50
2023-05-02T11:10:50.394Z,29.00
2023-05-02T11:13:37.271Z,29.00
2023-05-02T11:16:04.377Z,28.60
2023-05-02T11:19:00.978Z,28.20
2023-05-02T11:21:29.223Z,28.40
2023-05-02T11:24:33.558Z,27.40
2023-05-02T11:27:31.879Z,27.40
2023-05-02T11:30:09.629Z,27.60
2023-05-02T11:32:46.340Z,27.50
2023-05-02T11:35:20.081Z,26.70
2023-05-02T11:37:58.237Z,26.80
2023-05-02T11:40:26.517Z,27.40
2023-05-02T11:42:54.276Z,27.80
2023-05-02T11:45:21.587Z,27.50
2023-05-02T11:47:50.495Z,27.20
2023-05-02T11:50:18.528Z,27.20
2023-05-02T11:52:46.160Z,27.70
2023-05-02T11:55:14.380Z,27.30
2023-05-02T11:57:42.466Z,27.00
2023-05-02T12:00:11.357Z,26.70
2023-05-02T12:02:42.321Z,26.50
2023-05-02T12:05:14.220Z,26.30
2023-05-02T12:07:44.938Z,26.40
2023-05-02T12:10:13.788Z,26.30
2023-05-02T12:12:44.402Z,26.50
2023-05-02T12:15:12.872Z,26.40
2023-05-02T12:17:42.579Z,27.10
2023-05-02T12:20:10.888Z,26.60
2023-05-02T12:22:38.319Z,26.10
2023-05-02T12:25:06.348Z,25.60
2023-05-02T12:27:33.498Z,26.20
2023-05-02T12:30:01.154Z,26.20
2023-05-02T12:32:30.592Z,25.80
2023-05-02T12:34:58.491Z,25.20
2023-05-02T12:37:27.047Z,25.30
2023-05-02T12:39:55.581Z,26.10
2023-05-02T12:42:24.518Z,26.10
2023-05-02T12:44:52.374Z,26.30
2023-05-02T12:47:21.049Z,26.30
2023-05-02T12:49:59.335Z,26.70
2023-05-02T12:52:46.327Z,26.90
2023-05-02T12:55:20.208Z,26.40
2023-05-02T12:57:47.381Z,26.50
2023-05-02T13:00:17.262Z,26.20
2023-05-02T13:02:44.361Z,26.40
2023-05-02T13:05:15.024Z,26.10
2023-05-02T13:07:41.834Z,25.60
2023-05-02T13:12:38.304Z,25.30
2023-05-02T13:15:07.869Z,25.70
2023-05-02T13:17:35.548Z,25.60
2023-05-02T13:20:03.352Z,25.80
2023-05-02T13:22:30.274Z,25.40
2023-05-02T13:24:57.158Z,25.40
2023-05-02T13:27:24.244Z,25.50
2023-05-02T13:29:51.797Z,25.80
2023-05-02T13:32:19.624Z,25.70
2023-05-02T13:34:46.524Z,25.80
2023-05-02T13:37:14.004Z,25.60
2023-05-02T13:39:40.774Z,25.60
2023-05-02T13:42:08.004Z,25.90
2023-05-02T13:44:34.839Z,25.80
2023-05-02T13:47:01.760Z,25.80
2023-05-02T13:49:28.733Z,25.30
2023-05-02T13:51:55.732Z,25.30
2023-05-02T13:54:22.530Z,25.80
2023-05-02T13:56:49.378Z,25.70
2023-05-02T13:59:16.995Z,25.70
2023-05-02T14:01:44.133Z,25.80
2023-05-02T14:04:11.366Z,26.30
2023-05-02T14:06:38.483Z,26.80
2023-05-02T14:09:07.164Z,27.50
2023-05-02T14:11:34.081Z,27.90
2023-05-02T14:14:01.026Z,27.50
2023-05-02T14:16:28.168Z,27.20
2023-05-02T14:18:55.044Z,27.60
2023-05-02T14:21:21.943Z,28.20
2023-05-02T14:23:48.823Z,28.50
2023-05-02T14:26:16.025Z,28.50
2023-05-02T14:28:42.890Z,28.00
2023-05-02T14:31:09.904Z,28.00
2023-05-02T14:33:36.787Z,28.00
2023-05-02T14:36:04.116Z,27.40
2023-05-02T14:38:31.031Z,27.10
2023-05-02T14:40:57.934Z,27.30
2023-05-02T14:43:24.932Z,27.00
2023-05-02T14:45:51.821Z,27.10
2023-05-02T14:48:18.799Z,27.40
2023-05-02T14:50:45.771Z,27.90
2023-05-02T14:53:13.014Z,28.00
2023-05-02T14:55:40.713Z,28.30
2023-05-02T14:58:09.035Z,28.30
2023-05-02T15:00:37.781Z,28.50
2023-05-02T15:03:07.665Z,28.30
2023-05-02T15:05:36.940Z,28.30
2023-05-02T15:08:03.956Z,29.10
2023-05-02T15:10:30.880Z,29.40
2023-05-02T15:12:57.736Z,29.50
2023-05-02T15:15:25.380Z,29.30
2023-05-02T15:17:53.188Z,29.30
2023-05-02T15:20:20.163Z,29.50
2023-05-02T15:22:47.065Z,29.40
2023-05-02T15:25:13.990Z,28.90
2023-05-02T15:27:41.643Z,28.70
2023-05-02T15:30:08.944Z,28.80
2023-05-02T15:32:36.015Z,29.40
2023-05-02T15:35:07.828Z,29.90
2023-05-02T15:37:35.338Z,29.90
2023-05-02T15:40:04.164Z,29.90
2023-05-02T15:42:31.409Z,29.80
2023-05-02T15:44:58.456Z,29.90
2023-05-02T15:47:25.832Z,30.20
2023-05-02T15:49:55.010Z,30.70
2023-05-02T15:52:22.043Z,30.40
2023-05-02T15:54:51.570Z,30.20
2023-05-02T15:57:19.525Z,30.30
2023-05-02T15:59:46.386Z,30.70
2023-05-02T16:02:13.317Z,30.70
2023-05-02T16:04:40.257Z,30.60
2023-05-02T16:07:07.099Z,30.70
2023-05-02T16:09:33.938Z,31.10
2023-05-02T16:12:01.604Z,30.90
2023-05-02T16:14:28.963Z,30.70
2023-05-02T16:17:03.927Z,31.10
2023-05-02T16:19:30.915Z,31.30
2023-05-02T16:21:57.866Z,31.20
2023-05-02T16:24:24.837Z,31.10
2023-05-02T16:26:51.701Z,31.20
2023-05-02T16:29:18.596Z,31.40
2023-05-02T16:31:45.469Z,31.20
2023-05-02T16:34:12.289Z,31.10
2023-05-02T16:36:39.132Z,31.10
2023-05-02T16:39:06.115Z,31.10
2023-05-02T16:41:35.444Z,30.60
2023-05-02T16:44:02.205Z,30.80
2023-05-02T16:46:29.145Z,30.90
2023-05-02T16:48:56.069Z,30.60
2023-05-02T16:51:22.851Z,30.70
2023-05-02T16:53:49.843Z,30.70
2023-05-02T16:56:16.846Z,31.00
2023-05-02T16:58:43.782Z,31.00
2023-05-02T17:01:10.830Z,31.20
2023-05-02T17:03:39.355Z,30.90
2023-05-02T17:06:06.446Z,30.70
2023-05-02T17:08:33.375Z,30.60
2023-05-02T17:11:00.174Z,30.90
2023-05-02T17:13:26.910Z,31.20
2023-05-02T17:15:53.740Z,30.70
2023-05-02T17:18:20.687Z,30.80
2023-05-02T17:20:47.712Z,30.60
2023-05-02T17:23:14.648Z,31.00
2023-05-02T17:25:42.111Z,31.00
2023-05-02T17:28:09.541Z,31.50
2023-05-02T17:30:36.508Z,31.60
2023-05-02T17:33:03.471Z,31.60
2023-05-02T17:35:31.640Z,31.60
2023-05-02T17:37:58.618Z,31.80
2023-05-02T17:40:25.473Z,32.20
2023-05-02T17:42:52.283Z,32.10
2023-05-02T17:45:19.177Z,32.30
2023-05-02T17:47:46.196Z,32.50
2023-05-02T17:50:14.108Z,32.60
2023-05-02T17:52:41.099Z,32.60
2023-05-02T17:55:08.702Z,32.80
2023-05-02T17:57:35.799Z,32.90
2023-05-02T18:00:07.342Z,33.00
2023-05-02T18:02:38.394Z,33.60
2023-05-02T18:05:06.896Z,34.90
2023-05-02T18:07:33.793Z,35.50
2023-05-02T18:10:03.420Z,36.10
2023-05-02T18:12:32.263Z,36.50
2023-05-02T18:14:59.148Z,36.80
2023-05-02T18:17:26.934Z,37.20
2023-05-02T18:19:53.821Z,37.40
2023-05-02T18:22:21.753Z,37.90
2023-05-02T18:24:49.680Z,38.50
2023-05-02T18:27:17.709Z,39.20
2023-05-02T18:29:44.548Z,39.40
2023-05-02T18:32:11.434Z,40.00
2023-05-02T18:34:39.195Z,40.10
2023-05-02T18:37:06.818Z,40.50
2023-05-02T18:39:34.451Z,40.50
2023-05-02T18:42:04.827Z,40.70
2023-05-02T18:44:32.223Z,41.00
2023-05-02T18:46:59.138Z,41.30
2023-05-02T18:49:26.266Z,41.50
2023-05-02T18:51:54.749Z,41.60
2023-05-02T18:54:23.536Z,41.80
2023-05-02T18:56:50.517Z,42.00
2023-05-02T18:59:18.902Z,42.00
2023-05-02T19:01:48.202Z,42.30
2023-05-02T19:04:15.118Z,42.50
2023-05-02T19:06:42.250Z,42.90
2023-05-02T19:09:09.068Z,42.80
2023-05-02T19:11:41.361Z,42.80
2023-05-02T19:14:08.959Z,43.00
2023-05-02T19:16:38.137Z,43.30
2023-05-02T19:19:05.188Z,43.20
2023-05-02T19:21:33.939Z,43.30
2023-05-02T19:24:01.882Z,43.50
2023-05-02T19:26:28.747Z,43.70
2023-05-02T19:28:55.767Z,44.00
2023-05-02T19:31:23.633Z,44.20
2023-05-02T19:33:54.823Z,44.50
2023-05-02T19:36:23.161Z,44.70
2023-05-02T19:38:54.131Z,44.90
2023-05-02T19:41:22.228Z,45.00
2023-05-02T19:43:49.246Z,45.10
2023-05-02T19:46:16.822Z,45.30
2023-05-02T19:48:43.908Z,45.50
2023-05-02T19:51:11.369Z,45.60
2023-05-02T19:53:38.614Z,45.80
2023-05-02T19:56:09.102Z,45.80
2023-05-02T19:58:36.129Z,46.10
2023-05-02T20:01:03.428Z,46.30
2023-05-02T20:03:30.584Z,46.20
2023-05-02T20:05:58.511Z,46.60
2023-05-02T20:08:27.817Z,46.50
2023-05-02T20:10:58.074Z,46.60
2023-05-02T20:13:24.939Z,46.90
2023-05-02T20:15:52.938Z,46.90
2023-05-02T20:18:20.976Z,47.10
2023-05-02T20:20:47.830Z,47.60
2023-05-02T20:23:14.895Z,47.70
2023-05-02T20:25:42.851Z,47.80
2023-05-02T20:28:10.210Z,47.80
2023-05-02T20:30:39.028Z,48.00
2023-05-02T20:33:14.630Z,47.90
2023-05-02T20:35:42.269Z,48.00
2023-05-02T20:38:09.881Z,48.00
2023-05-02T20:40:39.912Z,48.10
2023-05-02T20:43:07.412Z,48.30
2023-05-02T20:45:34.241Z,48.40
2023-05-02T20:48:01.144Z,48.70
2023-05-02T20:50:28.310Z,48.90
2023-05-02T20:52:55.287Z,49.10
2023-05-02T20:55:23.036Z,49.20
2023-05-02T20:57:53.334Z,49.20
2023-05-02T21:00:23.773Z,49.30
2023-05-02T21:02:51.102Z,49.50
2023-05-02T21:05:18.155Z,49.80
2023-05-02T21:07:45.232Z,50.00
2023-05-02T21:10:12.285Z,50.20
2023-05-02T21:12:39.484Z,50.60
2023-05-02T21:15:08.875Z,50.70
2023-05-02T21:17:40.153Z,50.80
2023-05-02T21:20:07.861Z,51.20
2023-05-02T21:22:34.631Z,51.40
2023-05-02T21:25:01.452Z,51.50
2023-05-02T21:27:28.279Z,51.50
2023-05-02T21:29:55.215Z,51.90
2023-05-02T21:32:22.737Z,51.90
2023-05-02T21:34:49.676Z,52.40
2023-05-02T21:37:16.529Z,52.50
2023-05-02T21:39:43.630Z,52.70
2023-05-02T21:42:10.553Z,52.60
2023-05-02T21:44:37.322Z,53.00
2023-05-02T21:47:04.263Z,53.10
2023-05-02T21:49:31.295Z,53.20
2023-05-02T21:52:00.843Z,53.20
2023-05-02T21:54:27.728Z,53.60
2023-05-02T21:56:54.491Z,53.60
2023-05-02T21:59:21.298Z,53.60
2023-05-02T22:01:48.213Z,53.60
2023-05-02T22:04:15.091Z,53.70
2023-05-02T22:06:42.939Z,53.80
2023-05-02T22:09:10.456Z,54.20
2023-05-02T22:11:38.245Z,54.20
2023-05-02T22:14:06.576Z,54.50
2023-05-02T22:16:33.556Z,54.40
2023-05-02T22:19:01.601Z,54.70
2023-05-02T22:21:28.956Z,54.80
2023-05-02T22:23:56.160Z,54.80
2023-05-02T22:26:23.843Z,55.00
2023-05-02T22:28:51.072Z,55.00
2023-05-02T22:31:17.953Z,55.00
2023-05-02T22:33:49.536Z,55.50
2023-05-02T22:36:17.932Z,55.60
2023-05-02T22:38:44.883Z,55.50
2023-05-02T22:41:11.683Z,55.80
2023-05-02T22:43:38.895Z,55.80
2023-05-02T22:46:05.874Z,55.80
2023-05-02T22:48:32.818Z,55.70
2023-05-02T22:50:59.862Z,55.90
2023-05-02T22:53:26.689Z,56.00
2023-05-02T22:55:53.843Z,56.10
2023-05-02T22:58:20.622Z,56.30
2023-05-02T23:00:47.510Z,56.50
2023-05-02T23:03:14.435Z,56.40
2023-05-02T23:05:41.526Z,56.40
2023-05-02T23:08:08.316Z,56.50
2023-05-02T23:10:35.097Z,56.70
2023-05-02T23:13:01.983Z,56.80
2023-05-02T23:15:28.726Z,57.10
2023-05-02T23:17:55.611Z,57.10
2023-05-02T23:20:23.162Z,57.00
2023-05-02T23:22:50.119Z,57.10
2023-05-02T23:25:17.575Z,57.40
2023-05-02T23:27:44.415Z,57.40
2023-05-02T23:30:11.952Z,57.30
2023-05-02T23:32:39.397Z,57.40
2023-05-02T23:35:06.941Z,57.50
2023-05-02T23:37:33.885Z,57.70
2023-05-02T23:40:01.045Z,57.80
2023-05-02T23:42:29.905Z,57.80
2023-05-02T23:44:57.960Z,58.00
2023-05-02T23:47:28.047Z,58.00
2023-05-02T23:49:54.980Z,58.20
2023-05-02T23:52:21.909Z,58.20
2023-05-02T23:54:49.268Z,58.30
2023-05-02T23:57:16.313Z,58.40
2023-05-02T23:59:43.259Z,58.40
